Main page
METAR-TAF:

METAR-TAF

Airports :

Newcastle upon Tyne, England

Newcastle Airport

latitude: 55-02N, longitude: 001-42W, elevation: 81 m

Current weather observation

The report was made 24 minutes ago, at 06:50 UTC
Wind 3 kt from variable directions
Temperature 19°C
Humidity 78%
Pressure 1020 hPa
Visibility: 6000 m

METAR: EGNT 260650Z VRB03KT 6000 NSC 19/15 Q1020

Time: 08:14 (07:14 UTC)

Forecast

The report was made 2 hours and 20 minutes ago, at 04:54 UTC
Forecast valid from 26 at 06 UTC to 27 at 06 UTC
Wind 4 kt from variable directions
Visibility: 4000 m
mist
Becoming
from 26 at 06 UTC to 26 at 08 UTC
Visibility 10 km or more
no clouds below 1500 m and no cumulonimbus
Becoming
from 26 at 09 UTC to 26 at 12 UTC
Wind 10 kt from the Southeast

TAF: EGNT 260454Z 2606/2706 VRB04KT 4000 BR NSC BECMG 2606/2608 CAVOK BECMG 2609/2612 14010KT

Weather observations and forecasts of more than 4000 airports (METAR and TAF reports).

The available stations are represented by yellow and red dots on the map.

Hover mouse over dot to see the name of the station.

Then click to see weather observations and forecasts.

To change the map : click on the green buttons with a black cross to zoom in, on the green button with a dash to zoom out, or on the green arrows for adjacent maps.


METAR-TAF: